Time;durP1;ratioP1;P1;durP2;ratioP2;P2;SDS_P1;SDS_P2;PMS_P1;PMS_P2;Temp;Humidity;BMP_temperature;BMP_pressure;BME280_temperature;BME280_humidity;BME280_pressure;Samples;Min_cycle;Max_cycle;Signal;HPM_P1;HPM_P2
2021/09/17 00:01:31;;;;;;;5.50;3.70;;;;;;;;;;4992005;28;20443;-78
2021/09/17 00:03:58;;;;;;;7.50;4.60;;;;;;;;;;4988489;28;20456;-78
2021/09/17 00:06:25;;;;;;;5.47;3.93;;;;;;;;;;4991168;28;20447;-81
2021/09/17 00:08:52;;;;;;;6.67;4.27;;;;;;;;;;4991731;28;20813;-78
2021/09/17 00:11:19;;;;;;;5.93;4.40;;;;;;;;;;4992415;28;20859;-80
2021/09/17 00:13:48;;;;;;;12.13;4.70;;;;;;;;;;4992566;28;20446;-81
2021/09/17 00:16:16;;;;;;;6.40;4.23;;;;;;;;;;4976581;28;20454;-80
2021/09/17 00:18:43;;;;;;;7.13;4.10;;;;;;;;;;4976979;28;20452;-79
2021/09/17 00:21:11;;;;;;;5.50;4.40;;;;;;;;;;4976898;28;20458;-81
2021/09/17 00:23:38;;;;;;;7.00;4.40;;;;;;;;;;4992075;28;20454;-81
2021/09/17 00:26:05;;;;;;;3.97;3.57;;;;;;;;;;4969812;28;20436;-79
2021/09/17 00:28:32;;;;;;;6.10;4.23;;;;;;;;;;4990957;28;20436;-80
2021/09/17 00:30:59;;;;;;;5.93;4.27;;;;;;;;;;4991579;28;20455;-78
2021/09/17 00:33:29;;;;;;;6.10;5.10;;;;;;;;;;4991955;28;20440;-78
2021/09/17 00:35:57;;;;;;;7.60;4.67;;;;;;;;;;4991706;28;20436;-79
2021/09/17 00:38:24;;;;;;;7.30;5.10;;;;;;;;;;4994032;28;20490;-79
2021/09/17 00:40:51;;;;;;;7.60;4.90;;;;;;;;;;4993944;28;20463;-80
2021/09/17 00:43:18;;;;;;;6.47;5.20;;;;;;;;;;4993997;28;20452;-82
2021/09/17 00:45:46;;;;;;;10.47;4.93;;;;;;;;;;4990966;28;20447;-78
2021/09/17 00:48:14;;;;;;;6.30;5.30;;;;;;;;;;4987304;28;20523;-83
2021/09/17 00:50:42;;;;;;;6.87;5.33;;;;;;;;;;4990896;28;20986;-79
2021/09/17 00:53:10;;;;;;;7.23;5.00;;;;;;;;;;4992264;28;20460;-80
2021/09/17 00:55:37;;;;;;;9.90;6.10;;;;;;;;;;4994077;28;20451;-80
2021/09/17 00:58:04;;;;;;;7.10;5.17;;;;;;;;;;4995592;28;20486;-83
2021/09/17 01:00:31;;;;;;;7.63;5.80;;;;;;;;;;4997868;28;20893;-79
2021/09/17 01:02:58;;;;;;;7.03;6.07;;;;;;;;;;4997741;28;20440;-80
2021/09/17 01:05:25;;;;;;;11.17;6.47;;;;;;;;;;4997961;28;20790;-84
2021/09/17 01:07:54;;;;;;;7.20;6.00;;;;;;;;;;4994042;28;20760;-81
2021/09/17 01:10:22;;;;;;;6.40;5.63;;;;;;;;;;4990574;28;20548;-84
2021/09/17 01:12:49;;;;;;;8.37;5.17;;;;;;;;;;4994612;28;20432;-79
2021/09/17 01:15:16;;;;;;;8.00;6.00;;;;;;;;;;4995149;28;20450;-83
2021/09/17 01:17:45;;;;;;;6.97;5.73;;;;;;;;;;4995503;28;20494;-81
2021/09/17 01:20:14;;;;;;;7.50;5.77;;;;;;;;;;4995169;28;20495;-82
2021/09/17 01:22:42;;;;;;;8.33;5.53;;;;;;;;;;4997789;28;20419;-83
2021/09/17 01:25:11;;;;;;;8.30;5.80;;;;;;;;;;4997434;28;20534;-83
2021/09/17 01:27:42;;;;;;;6.43;5.83;;;;;;;;;;4997375;28;20456;-83
2021/09/17 01:30:10;;;;;;;7.87;5.43;;;;;;;;;;4993358;28;20444;-82
2021/09/17 01:32:41;;;;;;;6.63;5.63;;;;;;;;;;4990240;28;20440;-84
2021/09/17 01:35:09;;;;;;;6.03;5.40;;;;;;;;;;4974955;28;20514;-84
2021/09/17 01:37:36;;;;;;;5.73;5.13;;;;;;;;;;4975246;28;20563;-85
2021/09/17 01:40:05;;;;;;;8.60;5.70;;;;;;;;;;4975487;28;20467;-80
2021/09/17 01:42:32;;;;;;;9.90;5.83;;;;;;;;;;4979700;28;20854;-83
2021/09/17 01:44:59;;;;;;;6.10;5.33;;;;;;;;;;4997161;28;20427;-80
2021/09/17 01:47:27;;;;;;;6.63;5.80;;;;;;;;;;4997303;28;20407;-83
2021/09/17 01:49:58;;;;;;;7.10;5.97;;;;;;;;;;4996674;28;20496;-83
2021/09/17 01:52:26;;;;;;;6.63;5.93;;;;;;;;;;4991827;28;20530;-81
2021/09/17 01:54:53;;;;;;;7.70;6.83;;;;;;;;;;4989870;28;20975;-85
2021/09/17 01:57:25;;;;;;;9.60;7.03;;;;;;;;;;4993773;28;20818;-81
2021/09/17 01:59:55;;;;;;;6.97;6.27;;;;;;;;;;4994437;28;20459;-81
2021/09/17 02:02:22;;;;;;;7.10;5.30;;;;;;;;;;4994780;28;20526;-85
2021/09/17 02:04:49;;;;;;;7.10;6.40;;;;;;;;;;4994800;28;20964;-82
2021/09/17 02:07:17;;;;;;;8.93;6.10;;;;;;;;;;4996402;28;20937;-85
2021/09/17 02:09:44;;;;;;;7.37;6.57;;;;;;;;;;4979282;28;20468;-82
2021/09/17 02:12:11;;;;;;;8.70;6.60;;;;;;;;;;4996869;28;20802;-83
2021/09/17 02:14:46;;;;;;;8.03;7.20;;;;;;;;;;4991212;28;20437;-84
2021/09/17 02:17:16;;;;;;;9.20;6.33;;;;;;;;;;4972483;28;20745;-81
2021/09/17 02:19:43;;;;;;;8.40;7.57;;;;;;;;;;4993603;28;20456;-83
2021/09/17 02:22:11;;;;;;;7.17;6.47;;;;;;;;;;4994314;28;20440;-86
2021/09/17 02:24:38;;;;;;;7.37;6.70;;;;;;;;;;4994752;28;20450;-84
2021/09/17 02:27:06;;;;;;;7.93;7.13;;;;;;;;;;4994772;28;20455;-80
2021/09/17 02:29:33;;;;;;;7.43;6.70;;;;;;;;;;4996121;28;20848;-83
2021/09/17 02:32:02;;;;;;;6.97;6.27;;;;;;;;;;4996569;28;20535;-84
2021/09/17 02:34:29;;;;;;;7.43;6.47;;;;;;;;;;4995974;28;20433;-82
2021/09/17 02:36:57;;;;;;;8.20;7.03;;;;;;;;;;4989884;28;20418;-84
2021/09/17 02:39:24;;;;;;;9.00;6.40;;;;;;;;;;4989161;28;20479;-82
2021/09/17 02:41:52;;;;;;;7.00;6.30;;;;;;;;;;4993604;28;20797;-81
2021/09/17 02:44:19;;;;;;;9.80;7.60;;;;;;;;;;4993749;28;20492;-87
2021/09/17 02:46:46;;;;;;;7.70;7.00;;;;;;;;;;4993993;28;20451;-81
2021/09/17 02:49:15;;;;;;;8.60;7.70;;;;;;;;;;4994055;28;20554;-87
2021/09/17 02:51:47;;;;;;;7.93;6.83;;;;;;;;;;4989360;28;21032;-84
2021/09/17 02:54:14;;;;;;;7.70;6.90;;;;;;;;;;4989075;28;20805;-86
2021/09/17 02:56:41;;;;;;;9.73;8.50;;;;;;;;;;4993514;28;20471;-82
2021/09/17 02:59:08;;;;;;;8.33;7.47;;;;;;;;;;4993123;28;20458;-81
2021/09/17 03:01:35;;;;;;;7.80;7.10;;;;;;;;;;4993447;28;20531;-82
2021/09/17 03:04:03;;;;;;;11.70;8.50;;;;;;;;;;4994235;28;20472;-84
2021/09/17 03:06:31;;;;;;;9.80;8.27;;;;;;;;;;4995919;28;20942;-81
2021/09/17 03:08:58;;;;;;;9.87;8.87;;;;;;;;;;4995564;28;20427;-84
2021/09/17 03:11:25;;;;;;;8.87;8.07;;;;;;;;;;4995676;28;20441;-84
2021/09/17 03:13:53;;;;;;;9.07;8.17;;;;;;;;;;4989478;28;20418;-88
2021/09/17 03:16:20;;;;;;;10.87;8.70;;;;;;;;;;4989921;28;20448;-84
2021/09/17 03:18:47;;;;;;;12.27;8.47;;;;;;;;;;4992646;28;20483;-86
2021/09/17 03:21:14;;;;;;;12.30;8.63;;;;;;;;;;4993293;28;20460;-85
2021/09/17 03:23:42;;;;;;;10.63;9.00;;;;;;;;;;4993285;28;20489;-86
2021/09/17 03:26:10;;;;;;;9.97;8.97;;;;;;;;;;4993851;28;20430;-82
2021/09/17 03:28:37;;;;;;;11.60;9.90;;;;;;;;;;4995107;28;20475;-80
2021/09/17 03:31:04;;;;;;;10.70;9.10;;;;;;;;;;4995045;28;20789;-81
2021/09/17 03:33:31;;;;;;;11.37;9.50;;;;;;;;;;4995191;28;20451;-89
2021/09/17 03:35:58;;;;;;;10.77;8.87;;;;;;;;;;4988740;28;20424;-85
2021/09/17 03:38:26;;;;;;;11.40;9.50;;;;;;;;;;4971057;28;20493;-81
2021/09/17 03:40:54;;;;;;;10.23;9.13;;;;;;;;;;4992692;28;20460;-81
2021/09/17 03:43:21;;;;;;;10.40;8.70;;;;;;;;;;4992797;28;20439;-85
2021/09/17 03:45:49;;;;;;;14.57;9.20;;;;;;;;;;4993290;28;20825;-86
2021/09/17 03:48:16;;;;;;;12.43;9.40;;;;;;;;;;4994243;28;20460;-84
2021/09/17 03:59:11;;;;;;;10.87;9.37;;;;;;;;;;5026400;23;20499;-84
2021/09/17 04:01:44;;;;;;;11.80;9.83;;;;;;;;;;4948616;28;20432;-87
2021/09/17 04:04:15;;;;;;;12.70;9.30;;;;;;;;;;4950440;29;20450;-79
2021/09/17 04:06:43;;;;;;;10.53;9.43;;;;;;;;;;4950929;29;20437;-81
2021/09/17 04:09:10;;;;;;;10.80;9.23;;;;;;;;;;5007317;28;20475;-81
2021/09/17 04:11:40;;;;;;;9.30;8.37;;;;;;;;;;4998309;28;20520;-83
2021/09/17 04:14:09;;;;;;;9.97;9.00;;;;;;;;;;5007263;28;20450;-90
2021/09/17 04:16:37;;;;;;;10.23;8.43;;;;;;;;;;5010202;28;20471;-85
2021/09/17 04:19:05;;;;;;;9.20;8.13;;;;;;;;;;5011783;28;20896;-83
2021/09/17 04:21:32;;;;;;;10.00;8.50;;;;;;;;;;5011761;28;20442;-80
2021/09/17 04:23:59;;;;;;;9.30;8.37;;;;;;;;;;5012103;28;20796;-82
2021/09/17 04:26:27;;;;;;;9.43;8.43;;;;;;;;;;5013203;28;20550;-81
2021/09/17 04:28:54;;;;;;;12.60;9.80;;;;;;;;;;5013716;28;20535;-85
2021/09/17 04:31:21;;;;;;;10.77;9.27;;;;;;;;;;5013055;28;20539;-86
2021/09/17 04:33:49;;;;;;;14.10;10.50;;;;;;;;;;5011130;28;20443;-81
2021/09/17 04:36:32;;;;;;;10.20;9.20;;;;;;;;;;5007140;28;20431;-85
2021/09/17 04:38:59;;;;;;;11.70;9.50;;;;;;;;;;5010539;28;20506;-80
2021/09/17 04:41:26;;;;;;;10.00;8.50;;;;;;;;;;5011225;28;20537;-85
2021/09/17 04:43:53;;;;;;;11.60;10.40;;;;;;;;;;5011297;28;20569;-85
2021/09/17 04:46:21;;;;;;;11.27;10.10;;;;;;;;;;5012218;28;20439;-80
2021/09/17 04:48:48;;;;;;;13.33;8.80;;;;;;;;;;5014427;28;20482;-81
2021/09/17 04:51:15;;;;;;;12.47;9.60;;;;;;;;;;5013698;28;20443;-83
2021/09/17 04:53:44;;;;;;;12.30;9.43;;;;;;;;;;5013480;28;20966;-82
2021/09/17 04:56:11;;;;;;;12.53;9.40;;;;;;;;;;5009877;28;20450;-83
2021/09/17 04:58:38;;;;;;;12.27;10.53;;;;;;;;;;5006647;28;20567;-83
2021/09/17 05:01:05;;;;;;;9.97;9.00;;;;;;;;;;5010263;28;20465;-90
2021/09/17 05:03:33;;;;;;;15.60;9.80;;;;;;;;;;5011347;28;20443;-89
2021/09/17 05:06:00;;;;;;;10.07;9.07;;;;;;;;;;5011237;28;20679;-85
2021/09/17 05:08:27;;;;;;;12.00;10.67;;;;;;;;;;5011245;28;20454;-83
2021/09/17 05:10:56;;;;;;;12.37;11.17;;;;;;;;;;5013111;28;20960;-84
2021/09/17 05:13:23;;;;;;;10.40;8.77;;;;;;;;;;5013724;28;20445;-81
2021/09/17 05:15:50;;;;;;;12.03;9.40;;;;;;;;;;5013467;28;20774;-87
2021/09/17 05:18:17;;;;;;;11.17;10.00;;;;;;;;;;5009752;28;20480;-84
2021/09/17 05:20:44;;;;;;;13.17;10.60;;;;;;;;;;5006863;28;20455;-86
2021/09/17 05:23:13;;;;;;;11.77;10.67;;;;;;;;;;5012710;28;20443;-80
2021/09/17 05:25:40;;;;;;;10.43;8.43;;;;;;;;;;5012983;28;20539;-85
2021/09/17 05:28:08;;;;;;;11.80;9.97;;;;;;;;;;5012887;28;20870;-83
2021/09/17 05:30:36;;;;;;;10.87;9.80;;;;;;;;;;5011296;28;20827;-81
2021/09/17 05:33:03;;;;;;;12.13;10.70;;;;;;;;;;5009589;28;20475;-84
2021/09/17 05:35:30;;;;;;;10.27;9.20;;;;;;;;;;5007299;28;20537;-82
2021/09/17 05:37:57;;;;;;;10.60;9.17;;;;;;;;;;4987080;28;20803;-85
2021/09/17 05:40:25;;;;;;;11.20;9.90;;;;;;;;;;5005956;28;20555;-83
2021/09/17 05:42:52;;;;;;;14.03;9.73;;;;;;;;;;5014015;28;20546;-80
2021/09/17 05:45:21;;;;;;;11.03;8.87;;;;;;;;;;5014063;28;20516;-82
2021/09/17 05:47:48;;;;;;;12.33;10.20;;;;;;;;;;5013183;28;20447;-82
2021/09/17 05:50:15;;;;;;;13.37;10.30;;;;;;;;;;5009015;28;20468;-82
2021/09/17 05:52:42;;;;;;;12.30;10.50;;;;;;;;;;5012243;28;20928;-81
2021/09/17 05:55:12;;;;;;;11.60;9.17;;;;;;;;;;5014325;28;20425;-84
2021/09/17 05:57:40;;;;;;;12.07;10.80;;;;;;;;;;5012357;28;20453;-79
2021/09/17 06:00:08;;;;;;;12.33;11.07;;;;;;;;;;5012191;28;20640;-83
2021/09/17 06:02:36;;;;;;;12.20;9.93;;;;;;;;;;4997162;28;20951;-82
2021/09/17 06:05:04;;;;;;;11.70;9.37;;;;;;;;;;5008556;28;20430;-82
2021/09/17 06:07:33;;;;;;;14.50;10.17;;;;;;;;;;5011429;28;20960;-86
2021/09/17 06:10:01;;;;;;;10.40;8.93;;;;;;;;;;5013783;28;20486;-82
2021/09/17 06:12:28;;;;;;;11.43;9.77;;;;;;;;;;5013551;28;20948;-80
2021/09/17 06:14:56;;;;;;;11.63;9.17;;;;;;;;;;5013443;28;20454;-80
2021/09/17 06:17:23;;;;;;;11.27;9.70;;;;;;;;;;5012779;28;20455;-84
2021/09/17 06:19:52;;;;;;;13.20;9.57;;;;;;;;;;5015816;28;20470;-83
2021/09/17 06:22:19;;;;;;;14.50;9.60;;;;;;;;;;5015890;28;20439;-80
2021/09/17 06:24:46;;;;;;;11.30;10.20;;;;;;;;;;5015611;28;20413;-81
2021/09/17 06:27:13;;;;;;;11.60;10.23;;;;;;;;;;5009642;28;20921;-79
2021/09/17 06:29:41;;;;;;;11.33;10.23;;;;;;;;;;5008996;28;20454;-82
2021/09/17 06:32:08;;;;;;;13.33;9.80;;;;;;;;;;5012880;28;20445;-80
2021/09/17 06:34:35;;;;;;;11.73;9.97;;;;;;;;;;5013323;28;20443;-78
2021/09/17 06:37:04;;;;;;;11.33;10.23;;;;;;;;;;5012570;28;20433;-79
2021/09/17 06:39:32;;;;;;;10.47;8.57;;;;;;;;;;5014135;28;20473;-79
2021/09/17 06:41:59;;;;;;;10.93;9.40;;;;;;;;;;5013063;28;20430;-82
2021/09/17 06:44:27;;;;;;;12.33;9.83;;;;;;;;;;5014352;28;20417;-81
2021/09/17 06:46:54;;;;;;;11.20;10.00;;;;;;;;;;5015551;28;20429;-82
2021/09/17 06:49:21;;;;;;;15.57;10.27;;;;;;;;;;5011090;28;20431;-80
2021/09/17 06:51:48;;;;;;;12.83;9.93;;;;;;;;;;5009310;28;20476;-82
2021/09/17 06:54:17;;;;;;;11.90;10.37;;;;;;;;;;5010406;28;20442;-81
2021/09/17 06:56:44;;;;;;;10.63;9.00;;;;;;;;;;5012192;28;20956;-80
2021/09/17 06:59:12;;;;;;;10.60;9.60;;;;;;;;;;5009064;28;20968;-82
2021/09/17 07:01:39;;;;;;;11.20;10.07;;;;;;;;;;5013375;28;20432;-79
2021/09/17 07:04:06;;;;;;;16.73;10.80;;;;;;;;;;5011925;28;20406;-80
2021/09/17 07:06:33;;;;;;;12.80;10.07;;;;;;;;;;5007800;28;20433;-79
2021/09/17 07:09:01;;;;;;;11.40;10.30;;;;;;;;;;5011545;28;21005;-79
2021/09/17 07:11:29;;;;;;;14.70;10.80;;;;;;;;;;4991608;28;20430;-78
2021/09/17 07:13:56;;;;;;;13.20;10.80;;;;;;;;;;5003229;28;20946;-78
2021/09/17 07:16:23;;;;;;;11.87;9.90;;;;;;;;;;5011917;28;20434;-78
2021/09/17 07:18:51;;;;;;;13.13;10.70;;;;;;;;;;5014422;28;20819;-78
2021/09/17 07:21:18;;;;;;;10.60;9.23;;;;;;;;;;5014607;28;20980;-78
2021/09/17 07:23:45;;;;;;;11.33;10.13;;;;;;;;;;5012519;28;20521;-79
2021/09/17 07:26:12;;;;;;;12.33;9.70;;;;;;;;;;5013629;28;20446;-79
2021/09/17 07:28:41;;;;;;;9.60;8.70;;;;;;;;;;5007979;28;20460;-81
2021/09/17 07:31:08;;;;;;;13.33;10.40;;;;;;;;;;5010077;28;20446;-84
2021/09/17 07:33:36;;;;;;;9.97;8.97;;;;;;;;;;5012426;28;20423;-81
2021/09/17 07:36:03;;;;;;;11.00;9.90;;;;;;;;;;5011633;28;20531;-84
2021/09/17 07:38:30;;;;;;;10.10;9.03;;;;;;;;;;5010601;28;20524;-84
2021/09/17 07:40:57;;;;;;;12.03;10.00;;;;;;;;;;5012490;28;20465;-81
2021/09/17 07:43:24;;;;;;;11.43;9.00;;;;;;;;;;5014366;28;20765;-82
2021/09/17 07:45:53;;;;;;;10.37;9.30;;;;;;;;;;5014506;28;20439;-81
2021/09/17 07:48:20;;;;;;;11.83;9.30;;;;;;;;;;5013779;28;20994;-81
2021/09/17 07:50:48;;;;;;;10.77;9.13;;;;;;;;;;5008169;28;20493;-82
2021/09/17 07:53:15;;;;;;;11.33;10.17;;;;;;;;;;5008280;28;20924;-82
2021/09/17 07:55:42;;;;;;;11.00;9.90;;;;;;;;;;5011385;28;20436;-84
2021/09/17 07:58:09;;;;;;;10.93;9.50;;;;;;;;;;5011869;28;20483;-82
2021/09/17 08:00:37;;;;;;;12.23;10.03;;;;;;;;;;5012519;28;20824;-80
2021/09/17 08:03:05;;;;;;;11.63;10.40;;;;;;;;;;5008701;28;20462;-83
2021/09/17 08:05:32;;;;;;;11.37;10.13;;;;;;;;;;5013551;28;20434;-80
2021/09/17 08:07:59;;;;;;;13.50;10.40;;;;;;;;;;5013807;28;20448;-82
2021/09/17 08:10:26;;;;;;;11.80;9.03;;;;;;;;;;5012790;28;20431;-78
2021/09/17 08:12:54;;;;;;;13.83;10.07;;;;;;;;;;5010540;28;20448;-83
2021/09/17 08:15:21;;;;;;;10.80;9.10;;;;;;;;;;5006043;28;20443;-81
2021/09/17 08:17:48;;;;;;;11.70;10.27;;;;;;;;;;5011281;28;20446;-81
2021/09/17 08:20:16;;;;;;;11.77;10.13;;;;;;;;;;5011379;28;20459;-83
2021/09/17 08:22:44;;;;;;;14.87;10.60;;;;;;;;;;5011749;28;20447;-83
2021/09/17 08:25:11;;;;;;;10.90;9.77;;;;;;;;;;4992619;28;20438;-80
2021/09/17 08:27:39;;;;;;;10.00;9.00;;;;;;;;;;5013832;28;20431;-86
2021/09/17 08:30:07;;;;;;;10.57;9.23;;;;;;;;;;5013667;28;20454;-86
2021/09/17 08:32:34;;;;;;;13.27;9.97;;;;;;;;;;5013406;28;20489;-81
2021/09/17 08:35:01;;;;;;;11.20;9.90;;;;;;;;;;5010407;28;20404;-83
2021/09/17 08:37:30;;;;;;;9.70;8.70;;;;;;;;;;5007481;28;20426;-82
2021/09/17 08:39:57;;;;;;;15.17;10.60;;;;;;;;;;5009381;28;20550;-86
2021/09/17 08:42:24;;;;;;;9.67;8.67;;;;;;;;;;5011493;28;20445;-82
2021/09/17 08:44:51;;;;;;;11.70;9.80;;;;;;;;;;5011587;28;20445;-86
2021/09/17 08:47:19;;;;;;;10.47;8.80;;;;;;;;;;5011976;28;20430;-82
2021/09/17 08:49:47;;;;;;;11.00;9.20;;;;;;;;;;5011327;28;20820;-82
2021/09/17 08:52:14;;;;;;;11.80;9.50;;;;;;;;;;5005196;28;20416;-83
2021/09/17 08:54:43;;;;;;;11.00;9.13;;;;;;;;;;5013666;28;20420;-81
2021/09/17 08:57:10;;;;;;;9.30;8.40;;;;;;;;;;4996616;28;20950;-81
2021/09/17 08:59:39;;;;;;;11.20;9.10;;;;;;;;;;5005889;28;20505;-85
2021/09/17 09:02:21;;;;;;;10.40;8.77;;;;;;;;;;5008090;28;20497;-80
2021/09/17 09:04:55;;;;;;;14.50;9.27;;;;;;;;;;5009980;28;20441;-84
2021/09/17 09:07:27;;;;;;;13.27;10.77;;;;;;;;;;5010313;28;20410;-82
2021/09/17 09:09:55;;;;;;;11.00;9.20;;;;;;;;;;5010642;28;20491;-80
2021/09/17 09:12:25;;;;;;;11.80;10.10;;;;;;;;;;5012223;28;20417;-80
2021/09/17 09:15:12;;;;;;;12.53;9.00;;;;;;;;;;5013612;28;20791;-82
2021/09/17 09:17:39;;;;;;;10.03;8.20;;;;;;;;;;5016438;28;20472;-82
2021/09/17 09:20:20;;;;;;;10.00;8.80;;;;;;;;;;5014809;28;20493;-81
2021/09/17 09:23:03;;;;;;;11.43;9.03;;;;;;;;;;5009722;28;20433;-81
2021/09/17 09:25:32;;;;;;;11.30;9.83;;;;;;;;;;5013675;28;20449;-84
2021/09/17 09:28:11;;;;;;;10.77;9.57;;;;;;;;;;5015812;28;20450;-82
2021/09/17 09:30:38;;;;;;;9.87;8.83;;;;;;;;;;5013828;28;20466;-82
2021/09/17 09:33:20;;;;;;;12.27;9.70;;;;;;;;;;5013334;28;20446;-81
2021/09/17 09:35:47;;;;;;;12.90;10.90;;;;;;;;;;5015782;28;20438;-80
2021/09/17 09:38:28;;;;;;;11.53;9.50;;;;;;;;;;5016743;28;20522;-82
2021/09/17 09:40:59;;;;;;;9.87;8.90;;;;;;;;;;5016755;28;20492;-83
2021/09/17 09:43:29;;;;;;;12.90;9.33;;;;;;;;;;5013397;28;20525;-81
2021/09/17 09:45:57;;;;;;;12.13;10.00;;;;;;;;;;5009832;28;20445;-81
2021/09/17 09:48:24;;;;;;;12.70;9.80;;;;;;;;;;5013329;28;20968;-80
2021/09/17 09:50:52;;;;;;;13.33;11.30;;;;;;;;;;5016024;28;20486;-79
2021/09/17 09:53:19;;;;;;;11.17;10.07;;;;;;;;;;5015054;28;20447;-82
2021/09/17 09:55:47;;;;;;;11.47;10.07;;;;;;;;;;5014148;28;20443;-82
2021/09/17 09:58:16;;;;;;;10.47;9.40;;;;;;;;;;5015879;28;20471;-81
2021/09/17 10:00:43;;;;;;;10.10;8.90;;;;;;;;;;5014119;28;20491;-81
2021/09/17 10:03:10;;;;;;;10.93;8.90;;;;;;;;;;5016500;28;20443;-79
2021/09/17 10:05:38;;;;;;;10.77;9.17;;;;;;;;;;5009349;28;20431;-82
2021/09/17 10:08:05;;;;;;;9.60;8.60;;;;;;;;;;5007330;28;20450;-78
2021/09/17 10:10:33;;;;;;;8.93;8.00;;;;;;;;;;5008073;28;20454;-81
2021/09/17 10:13:00;;;;;;;8.90;7.30;;;;;;;;;;5010971;28;20932;-82
2021/09/17 10:15:31;;;;;;;10.27;7.00;;;;;;;;;;5011647;28;20451;-84
2021/09/17 10:17:58;;;;;;;8.77;7.90;;;;;;;;;;5011576;28;20477;-81
2021/09/17 10:20:36;;;;;;;9.30;7.77;;;;;;;;;;5013230;28;20479;-82
2021/09/17 10:23:24;;;;;;;9.03;8.13;;;;;;;;;;5011460;28;20469;-81
2021/09/17 10:25:59;;;;;;;10.40;9.00;;;;;;;;;;5012925;28;20435;-83
2021/09/17 10:28:26;;;;;;;11.83;9.77;;;;;;;;;;5009068;28;20843;-79
2021/09/17 10:31:10;;;;;;;12.10;9.50;;;;;;;;;;4988527;28;20463;-85
2021/09/17 10:33:37;;;;;;;10.07;8.37;;;;;;;;;;5005587;28;20471;-86
2021/09/17 10:36:04;;;;;;;8.90;8.00;;;;;;;;;;4993721;28;20503;-81
2021/09/17 10:38:32;;;;;;;11.27;9.67;;;;;;;;;;5010902;28;20443;-84
2021/09/17 10:41:04;;;;;;;11.13;10.03;;;;;;;;;;5011110;28;20491;-78
2021/09/17 10:43:33;;;;;;;11.00;9.70;;;;;;;;;;5010812;28;20940;-82
2021/09/17 10:46:02;;;;;;;11.60;10.40;;;;;;;;;;5013468;28;20542;-81
2021/09/17 10:48:30;;;;;;;10.90;9.77;;;;;;;;;;5014220;28;20443;-82
2021/09/17 10:51:02;;;;;;;13.13;9.57;;;;;;;;;;5010860;28;20546;-78
2021/09/17 10:53:45;;;;;;;10.30;9.27;;;;;;;;;;4989716;28;20811;-83
2021/09/17 10:56:13;;;;;;;11.40;9.37;;;;;;;;;;4993433;28;20435;-81
2021/09/17 10:58:41;;;;;;;14.10;9.10;;;;;;;;;;5012206;28;20506;-82
2021/09/17 11:01:11;;;;;;;8.50;7.70;;;;;;;;;;5011544;28;20510;-84
2021/09/17 11:03:53;;;;;;;10.50;8.60;;;;;;;;;;5009865;28;20463;-82
2021/09/17 11:06:28;;;;;;;9.33;8.47;;;;;;;;;;4990553;28;20443;-84
2021/09/17 11:08:56;;;;;;;9.30;7.50;;;;;;;;;;5008401;28;20454;-82
2021/09/17 11:11:24;;;;;;;8.97;8.07;;;;;;;;;;5011669;28;21116;-84
2021/09/17 11:13:51;;;;;;;11.20;10.00;;;;;;;;;;5013058;28;20442;-78
2021/09/17 11:16:21;;;;;;;14.93;13.43;;;;;;;;;;5013528;28;20446;-83
2021/09/17 11:18:52;;;;;;;11.17;8.90;;;;;;;;;;5013607;28;20463;-82
2021/09/17 11:21:19;;;;;;;9.97;8.13;;;;;;;;;;5012180;28;20490;-79
2021/09/17 11:23:49;;;;;;;11.33;9.97;;;;;;;;;;5013699;28;20435;-77
2021/09/17 11:26:19;;;;;;;10.40;9.30;;;;;;;;;;5013904;28;20501;-76
2021/09/17 11:28:57;;;;;;;9.83;8.90;;;;;;;;;;5009472;28;20806;-76
2021/09/17 11:31:31;;;;;;;8.80;7.90;;;;;;;;;;4990910;28;20443;-79
2021/09/17 11:33:59;;;;;;;11.13;9.20;;;;;;;;;;5011476;28;20439;-77
2021/09/17 11:36:36;;;;;;;10.27;8.80;;;;;;;;;;5011384;28;20455;-77
2021/09/17 11:39:18;;;;;;;13.70;11.90;;;;;;;;;;5012494;28;21055;-79
2021/09/17 11:41:46;;;;;;;11.70;10.27;;;;;;;;;;4992391;28;20491;-82
2021/09/17 11:44:28;;;;;;;17.93;14.00;;;;;;;;;;4984347;28;20459;-79
2021/09/17 11:46:57;;;;;;;14.23;12.83;;;;;;;;;;4994533;28;20455;-78
2021/09/17 11:49:25;;;;;;;14.60;12.20;;;;;;;;;;4989429;28;20488;-77
2021/09/17 11:51:57;;;;;;;11.73;10.53;;;;;;;;;;5008259;28;20442;-80
2021/09/17 11:54:24;;;;;;;14.47;10.83;;;;;;;;;;5009071;28;20435;-80
2021/09/17 11:56:59;;;;;;;9.43;7.87;;;;;;;;;;5009952;28;20824;-78
2021/09/17 11:59:31;;;;;;;10.10;9.03;;;;;;;;;;5011567;28;21276;-82
2021/09/17 12:02:12;;;;;;;10.10;8.40;;;;;;;;;;5011891;28;20483;-80
2021/09/17 12:04:40;;;;;;;10.20;8.70;;;;;;;;;;5011681;28;20473;-79
2021/09/17 12:07:07;;;;;;;8.50;6.90;;;;;;;;;;4981172;28;20460;-81
2021/09/17 12:09:34;;;;;;;10.07;9.07;;;;;;;;;;4994032;28;20468;-80
2021/09/17 12:12:02;;;;;;;9.47;8.47;;;;;;;;;;4997635;28;20810;-79
2021/09/17 12:14:29;;;;;;;9.90;8.50;;;;;;;;;;5007151;28;20453;-79
2021/09/17 12:17:02;;;;;;;12.83;9.00;;;;;;;;;;5006572;28;20447;-80
2021/09/17 12:19:30;;;;;;;12.33;11.07;;;;;;;;;;5008050;28;20474;-81
2021/09/17 12:21:59;;;;;;;13.07;11.33;;;;;;;;;;4990863;28;20582;-78
2021/09/17 12:24:27;;;;;;;8.07;7.27;;;;;;;;;;5003377;28;20539;-82
2021/09/17 12:26:55;;;;;;;10.77;9.13;;;;;;;;;;4986002;28;20866;-82
2021/09/17 12:29:22;;;;;;;10.67;9.60;;;;;;;;;;5006444;28;20463;-79
2021/09/17 12:31:49;;;;;;;11.80;10.23;;;;;;;;;;5008666;28;20444;-79
2021/09/17 12:34:17;;;;;;;13.20;11.80;;;;;;;;;;5010047;28;20470;-79
2021/09/17 12:36:49;;;;;;;8.90;8.00;;;;;;;;;;5011158;28;20443;-81
2021/09/17 12:39:20;;;;;;;9.47;7.53;;;;;;;;;;5007281;28;20470;-83
2021/09/17 12:41:48;;;;;;;9.27;7.40;;;;;;;;;;4988864;28;20494;-78
2021/09/17 12:44:20;;;;;;;12.37;9.40;;;;;;;;;;5010922;28;20999;-88
2021/09/17 12:46:49;;;;;;;11.83;10.23;;;;;;;;;;5008945;28;20458;-82
2021/09/17 12:49:16;;;;;;;9.73;8.73;;;;;;;;;;4989934;28;20490;-78
2021/09/17 12:51:55;;;;;;;6.30;5.57;;;;;;;;;;4981776;28;20956;-78
2021/09/17 12:54:24;;;;;;;8.33;6.73;;;;;;;;;;4984301;28;20454;-76
2021/09/17 12:56:51;;;;;;;7.50;5.80;;;;;;;;;;5010982;28;20443;-78
2021/09/17 12:59:20;;;;;;;6.97;6.23;;;;;;;;;;5010293;28;20467;-79
2021/09/17 13:01:47;;;;;;;7.23;6.10;;;;;;;;;;5010884;28;20694;-78
2021/09/17 13:04:15;;;;;;;7.40;6.70;;;;;;;;;;5011005;28;20462;-81
2021/09/17 13:06:44;;;;;;;7.90;7.10;;;;;;;;;;5013701;28;20827;-78
2021/09/17 13:09:11;;;;;;;9.63;6.30;;;;;;;;;;5012100;28;20463;-78
2021/09/17 13:11:39;;;;;;;7.23;6.03;;;;;;;;;;5008371;28;20458;-77
2021/09/17 13:14:06;;;;;;;6.13;5.60;;;;;;;;;;5007319;28;20437;-80
2021/09/17 13:16:34;;;;;;;7.40;6.70;;;;;;;;;;5008312;28;20435;-79
2021/09/17 13:19:01;;;;;;;6.33;5.73;;;;;;;;;;5010526;28;20526;-80
2021/09/17 13:21:28;;;;;;;7.17;6.47;;;;;;;;;;5009881;28;20489;-78
2021/09/17 13:23:55;;;;;;;6.20;5.70;;;;;;;;;;5010903;28;20549;-76
2021/09/17 13:26:22;;;;;;;7.40;6.00;;;;;;;;;;5011785;28;20462;-79
2021/09/17 13:28:51;;;;;;;6.40;5.80;;;;;;;;;;5013254;28;20443;-79
2021/09/17 13:31:18;;;;;;;8.00;7.20;;;;;;;;;;5011543;28;20454;-77
2021/09/17 13:33:45;;;;;;;5.97;5.40;;;;;;;;;;5013508;28;20439;-79
2021/09/17 13:36:12;;;;;;;7.53;5.77;;;;;;;;;;5009252;28;20447;-75
2021/09/17 13:38:40;;;;;;;6.63;6.00;;;;;;;;;;5007244;28;20446;-78
2021/09/17 13:41:07;;;;;;;7.70;6.90;;;;;;;;;;5007962;28;20489;-82
2021/09/17 13:43:34;;;;;;;7.80;6.40;;;;;;;;;;5009483;28;20469;-82
2021/09/17 13:46:02;;;;;;;7.10;6.40;;;;;;;;;;5011239;28;20449;-79
2021/09/17 13:48:30;;;;;;;6.90;6.20;;;;;;;;;;5006923;28;20463;-78
2021/09/17 13:50:57;;;;;;;6.40;5.80;;;;;;;;;;5002934;28;20486;-81
2021/09/17 13:53:24;;;;;;;9.63;6.80;;;;;;;;;;5007490;28;20443;-79
2021/09/17 13:55:51;;;;;;;6.97;6.30;;;;;;;;;;5010437;28;20810;-80
2021/09/17 13:58:18;;;;;;;8.70;6.47;;;;;;;;;;5010661;28;20483;-78
2021/09/17 14:00:46;;;;;;;6.97;6.33;;;;;;;;;;5008906;28;20466;-83
2021/09/17 14:03:14;;;;;;;6.87;5.77;;;;;;;;;;5013172;28;20471;-81
2021/09/17 14:05:41;;;;;;;5.93;5.37;;;;;;;;;;5016739;28;20806;-79
2021/09/17 14:08:08;;;;;;;7.67;6.90;;;;;;;;;;5016428;28;20775;-80
2021/09/17 14:10:36;;;;;;;7.97;7.17;;;;;;;;;;5016603;28;20469;-82
2021/09/17 14:13:03;;;;;;;6.30;5.70;;;;;;;;;;5010308;28;20462;-80
2021/09/17 14:15:30;;;;;;;7.17;6.43;;;;;;;;;;5010264;28;20458;-83
2021/09/17 14:17:57;;;;;;;6.37;5.77;;;;;;;;;;5013564;28;20439;-80
2021/09/17 14:20:26;;;;;;;6.33;5.77;;;;;;;;;;5008247;23;20590;-83
2021/09/17 14:22:53;;;;;;;6.17;5.53;;;;;;;;;;4995490;28;20498;-80
2021/09/17 14:25:20;;;;;;;6.37;5.77;;;;;;;;;;4994390;28;20440;-80
2021/09/17 14:27:47;;;;;;;7.07;5.73;;;;;;;;;;4992900;28;20439;-83
2021/09/17 14:30:15;;;;;;;6.00;5.30;;;;;;;;;;4990533;28;20829;-78
2021/09/17 14:32:42;;;;;;;5.27;4.77;;;;;;;;;;4991284;28;20881;-81
2021/09/17 14:35:10;;;;;;;5.00;4.60;;;;;;;;;;4990370;28;20462;-80
2021/09/17 14:37:39;;;;;;;5.10;4.60;;;;;;;;;;4993583;28;20463;-78
2021/09/17 14:40:06;;;;;;;6.77;4.63;;;;;;;;;;4995436;28;20471;-81
2021/09/17 14:42:34;;;;;;;5.30;4.80;;;;;;;;;;4996779;28;20487;-79
2021/09/17 14:45:01;;;;;;;6.33;5.40;;;;;;;;;;4995623;28;20453;-80
2021/09/17 14:47:28;;;;;;;6.57;5.23;;;;;;;;;;4996912;28;20443;-79
2021/09/17 14:49:55;;;;;;;6.03;5.10;;;;;;;;;;4990318;28;20827;-79